createdAt,value
2017-06-12T00:00:19.607Z,8.47
2017-06-12T00:02:48.456Z,8.47
2017-06-12T00:05:17.274Z,8.20
2017-06-12T00:07:46.122Z,8.10
2017-06-12T00:10:15.090Z,7.97
2017-06-12T00:12:43.952Z,7.83
2017-06-12T00:15:12.886Z,7.30
2017-06-12T00:17:41.734Z,8.13
2017-06-12T00:20:10.694Z,7.83
2017-06-12T00:22:39.561Z,7.70
2017-06-12T00:25:08.393Z,7.60
2017-06-12T00:27:37.209Z,7.80
2017-06-12T00:30:06.071Z,8.10
2017-06-12T00:32:34.908Z,7.00
2017-06-12T00:35:03.707Z,7.40
2017-06-12T00:37:32.570Z,7.67
2017-06-12T00:40:01.406Z,7.70
2017-06-12T00:42:30.298Z,7.27
2017-06-12T00:44:59.097Z,7.13
2017-06-12T00:47:28.056Z,6.90
2017-06-12T00:49:56.959Z,6.87
2017-06-12T00:52:25.758Z,6.60
2017-06-12T00:54:54.682Z,6.87
2017-06-12T00:57:23.498Z,6.87
2017-06-12T00:59:52.430Z,6.77
2017-06-12T01:02:21.234Z,6.90
2017-06-12T01:04:50.569Z,7.57
2017-06-12T01:07:19.431Z,6.77
2017-06-12T01:09:48.291Z,7.50
2017-06-12T01:12:17.299Z,6.90
2017-06-12T01:14:46.126Z,7.20
2017-06-12T01:17:14.966Z,6.80
2017-06-12T01:19:43.850Z,6.80
2017-06-12T01:22:18.619Z,6.60
2017-06-12T01:24:47.450Z,6.20
2017-06-12T01:27:16.318Z,6.63
2017-06-12T01:29:45.239Z,7.00
2017-06-12T01:32:14.122Z,7.03
2017-06-12T01:34:43.049Z,6.73
2017-06-12T01:37:11.863Z,6.90
2017-06-12T01:39:40.691Z,6.30
2017-06-12T01:42:09.703Z,6.70
2017-06-12T01:44:38.759Z,6.43
2017-06-12T01:47:07.571Z,6.87
2017-06-12T01:49:37.018Z,6.10
2017-06-12T01:52:05.867Z,6.37
2017-06-12T01:54:34.666Z,6.00
2017-06-12T01:57:03.507Z,6.23
2017-06-12T01:59:32.348Z,6.20
2017-06-12T02:02:01.251Z,6.23
2017-06-12T02:04:30.194Z,5.93
2017-06-12T02:06:59.083Z,5.70
2017-06-12T02:09:27.886Z,6.63
2017-06-12T02:11:56.925Z,6.30
2017-06-12T02:14:25.754Z,5.70
2017-06-12T02:16:54.592Z,6.53
2017-06-12T02:19:23.394Z,5.87
2017-06-12T02:21:52.382Z,6.90
2017-06-12T02:24:21.219Z,5.80
2017-06-12T02:26:50.111Z,6.83
2017-06-12T02:29:19.062Z,7.03
2017-06-12T02:31:48.637Z,6.00
2017-06-12T02:34:17.436Z,6.07
2017-06-12T02:36:46.283Z,5.97
2017-06-12T02:39:15.083Z,6.20
2017-06-12T02:41:43.907Z,6.30
2017-06-12T02:44:12.742Z,6.00
2017-06-12T02:46:41.561Z,6.03
2017-06-12T02:49:10.399Z,6.10
2017-06-12T02:51:39.304Z,6.40
2017-06-12T02:54:08.128Z,5.83
2017-06-12T02:56:36.935Z,6.80
2017-06-12T02:59:05.747Z,6.53
2017-06-12T03:01:34.608Z,6.43
2017-06-12T03:04:03.462Z,6.33
2017-06-12T03:06:32.319Z,6.40
2017-06-12T03:09:01.154Z,6.40
2017-06-12T03:11:29.981Z,6.23
2017-06-12T03:13:58.768Z,6.07
2017-06-12T03:16:27.607Z,5.70
2017-06-12T03:18:56.410Z,6.60
2017-06-12T03:21:25.210Z,6.10
2017-06-12T03:23:54.112Z,5.93
2017-06-12T03:26:22.922Z,6.03
2017-06-12T03:28:51.814Z,6.37
2017-06-12T03:31:20.641Z,6.23
2017-06-12T03:33:49.458Z,5.93
2017-06-12T03:36:18.441Z,5.77
2017-06-12T03:38:47.257Z,5.90
2017-06-12T03:41:16.094Z,6.60
2017-06-12T03:43:44.952Z,6.53
2017-06-12T03:46:13.754Z,6.73
2017-06-12T03:48:42.699Z,6.30
2017-06-12T03:51:11.502Z,6.23
2017-06-12T03:53:40.425Z,7.00
2017-06-12T03:56:09.267Z,6.90
2017-06-12T03:58:38.094Z,6.50
2017-06-12T04:01:06.924Z,6.43
2017-06-12T04:03:35.784Z,6.60
2017-06-12T04:06:04.600Z,6.30
2017-06-12T04:08:33.458Z,6.30
2017-06-12T04:11:02.262Z,6.50
2017-06-12T04:13:31.063Z,6.13
2017-06-12T04:15:59.895Z,6.10
2017-06-12T04:18:28.694Z,6.63
2017-06-12T04:20:57.527Z,6.17
2017-06-12T04:23:27.043Z,5.67
2017-06-12T04:25:55.859Z,6.23
2017-06-12T04:28:24.652Z,6.43
2017-06-12T04:30:53.493Z,7.40
2017-06-12T04:33:22.357Z,5.47
2017-06-12T04:35:51.155Z,6.10
2017-06-12T04:38:19.998Z,5.80
2017-06-12T04:40:48.801Z,5.50
2017-06-12T04:43:17.655Z,5.70
2017-06-12T04:45:46.479Z,5.80
2017-06-12T04:48:15.284Z,6.23
2017-06-12T04:50:44.167Z,5.80
2017-06-12T04:53:12.965Z,5.30
2017-06-12T04:55:41.767Z,5.57
2017-06-12T04:58:10.635Z,6.20
2017-06-12T05:00:39.461Z,5.90
2017-06-12T05:03:08.255Z,5.70
2017-06-12T05:05:37.147Z,5.70
2017-06-12T05:08:05.955Z,5.50
2017-06-12T05:10:34.769Z,5.10
2017-06-12T05:13:03.610Z,5.30
2017-06-12T05:15:32.431Z,5.70
2017-06-12T05:18:01.332Z,5.50
2017-06-12T05:20:30.190Z,5.07
2017-06-12T05:22:58.986Z,4.73
2017-06-12T05:25:27.786Z,4.73
2017-06-12T05:27:56.791Z,5.20
2017-06-12T05:30:25.579Z,5.67
2017-06-12T05:32:54.389Z,5.20
2017-06-12T05:35:23.199Z,5.60
2017-06-12T05:37:52.025Z,4.93
2017-06-12T05:40:20.985Z,5.40
2017-06-12T05:42:49.803Z,5.17
2017-06-12T05:45:18.623Z,4.83
2017-06-12T05:47:47.460Z,5.10
2017-06-12T05:50:16.257Z,5.40
2017-06-12T05:52:45.067Z,4.77
2017-06-12T05:55:13.894Z,5.07
2017-06-12T05:57:42.711Z,4.80
2017-06-12T06:00:11.609Z,4.90
2017-06-12T06:02:40.404Z,5.17
2017-06-12T06:05:09.295Z,4.97
2017-06-12T06:07:38.895Z,4.87
2017-06-12T06:10:07.697Z,4.73
2017-06-12T06:12:36.510Z,4.70
2017-06-12T06:15:06.028Z,4.80
2017-06-12T06:17:34.830Z,4.53
2017-06-12T06:20:03.698Z,4.57
2017-06-12T06:22:32.558Z,4.77
2017-06-12T06:25:01.361Z,4.63
2017-06-12T06:27:30.216Z,4.70
2017-06-12T06:29:59.038Z,4.60
2017-06-12T06:32:27.850Z,5.20
2017-06-12T06:34:56.764Z,4.57
2017-06-12T06:37:25.571Z,4.70
2017-06-12T06:39:54.387Z,5.00
2017-06-12T06:42:23.239Z,5.03
2017-06-12T06:44:52.064Z,4.53
2017-06-12T06:47:20.902Z,4.40
2017-06-12T06:49:49.713Z,4.73
2017-06-12T06:52:18.522Z,4.60
2017-06-12T06:54:47.359Z,4.53
2017-06-12T06:57:16.167Z,4.40
2017-06-12T06:59:45.036Z,5.50
2017-06-12T07:02:13.848Z,4.90
2017-06-12T07:04:42.652Z,4.47
2017-06-12T07:07:11.482Z,4.80
2017-06-12T07:09:40.295Z,4.70
2017-06-12T07:12:09.631Z,4.17
2017-06-12T07:14:38.987Z,5.10
2017-06-12T07:17:08.569Z,4.60
2017-06-12T07:19:37.566Z,4.70
2017-06-12T07:22:06.907Z,4.60
2017-06-12T07:24:35.976Z,4.73
2017-06-12T07:27:05.297Z,4.43
2017-06-12T07:29:34.199Z,5.33
2017-06-12T07:32:03.342Z,4.90
2017-06-12T07:34:32.377Z,4.53
2017-06-12T07:37:01.637Z,4.80
2017-06-12T07:39:30.624Z,5.30
2017-06-12T07:41:59.586Z,4.67
2017-06-12T07:44:28.567Z,4.17
2017-06-12T07:46:57.582Z,4.50
2017-06-12T07:49:26.607Z,4.30
2017-06-12T07:51:55.693Z,4.10
2017-06-12T07:54:24.516Z,3.90
2017-06-12T07:56:53.570Z,4.17
2017-06-12T07:59:22.404Z,3.80
2017-06-12T08:01:51.346Z,4.07
2017-06-12T08:04:20.358Z,4.10
2017-06-12T08:06:49.252Z,4.00
2017-06-12T08:09:18.134Z,3.67
2017-06-12T08:11:46.971Z,3.67
2017-06-12T08:14:15.779Z,3.57
2017-06-12T08:16:44.639Z,3.33
2017-06-12T08:19:13.463Z,3.70
2017-06-12T08:21:42.303Z,4.20
2017-06-12T08:24:11.194Z,3.53
2017-06-12T08:26:40.025Z,3.87
2017-06-12T08:29:08.863Z,3.47
2017-06-12T08:31:37.714Z,3.40
2017-06-12T08:34:06.525Z,3.50
2017-06-12T08:36:35.370Z,3.47
2017-06-12T08:39:04.163Z,3.70
2017-06-12T08:41:33.008Z,3.43
2017-06-12T08:44:01.811Z,3.00
2017-06-12T08:46:30.646Z,3.43
2017-06-12T08:48:59.519Z,3.67
2017-06-12T08:51:28.341Z,3.50
2017-06-12T08:53:57.165Z,3.50
2017-06-12T08:56:26.012Z,3.47
2017-06-12T08:58:54.832Z,3.40
2017-06-12T09:01:23.666Z,3.80
2017-06-12T09:03:52.483Z,4.07
2017-06-12T09:06:21.275Z,3.63
2017-06-12T09:08:50.187Z,3.63
2017-06-12T09:11:18.987Z,3.60
2017-06-12T09:13:47.812Z,3.60
2017-06-12T09:16:16.650Z,4.10
2017-06-12T09:18:45.449Z,4.07
2017-06-12T09:21:14.286Z,3.90
2017-06-12T09:23:43.116Z,4.03
2017-06-12T09:26:11.919Z,4.07
2017-06-12T09:28:40.870Z,4.20
2017-06-12T09:31:09.696Z,4.17
2017-06-12T09:33:38.537Z,4.00
2017-06-12T09:36:07.335Z,4.50
2017-06-12T09:38:36.189Z,4.20
2017-06-12T09:41:05.021Z,4.53
2017-06-12T09:43:33.838Z,4.70
2017-06-12T09:46:02.738Z,5.03
2017-06-12T09:48:31.555Z,5.07
2017-06-12T09:51:00.383Z,5.80
2017-06-12T09:53:29.232Z,5.50
2017-06-12T09:55:58.075Z,5.20
2017-06-12T09:58:26.966Z,5.20
2017-06-12T10:00:55.779Z,5.50
2017-06-12T10:03:24.594Z,5.00
2017-06-12T10:05:53.459Z,5.63
2017-06-12T10:08:22.261Z,5.63
2017-06-12T10:10:51.255Z,6.33
2017-06-12T10:13:20.129Z,5.90
2017-06-12T10:15:48.922Z,5.97
2017-06-12T10:18:17.756Z,5.90
2017-06-12T10:20:46.573Z,5.10
2017-06-12T10:23:15.426Z,5.77
2017-06-12T10:25:44.263Z,6.07
2017-06-12T10:28:13.071Z,5.60
2017-06-12T10:30:41.959Z,5.70
2017-06-12T10:33:10.783Z,5.50
2017-06-12T10:35:39.635Z,6.10
2017-06-12T10:38:08.460Z,6.13
2017-06-12T10:40:37.274Z,7.97
2017-06-12T10:43:06.119Z,5.90
2017-06-12T10:45:34.935Z,5.83
2017-06-12T10:48:03.752Z,5.60
2017-06-12T10:50:32.608Z,5.90
2017-06-12T10:53:01.422Z,4.90
2017-06-12T10:55:30.247Z,5.87
2017-06-12T10:57:59.092Z,5.80
2017-06-12T11:00:27.916Z,5.60
2017-06-12T11:02:56.728Z,5.37
2017-06-12T11:05:25.596Z,5.60
2017-06-12T11:07:54.815Z,5.37
2017-06-12T11:10:23.732Z,5.20
2017-06-12T11:12:52.553Z,5.27
2017-06-12T11:15:21.384Z,5.13
2017-06-12T11:17:50.220Z,5.87
2017-06-12T11:20:19.955Z,5.40
2017-06-12T11:22:48.768Z,5.13
2017-06-12T11:25:18.307Z,5.30
2017-06-12T11:27:52.948Z,5.93
2017-06-12T11:30:21.803Z,6.37
2017-06-12T11:32:50.814Z,5.67
2017-06-12T11:35:19.607Z,5.30
2017-06-12T11:37:48.432Z,5.57
2017-06-12T11:40:17.329Z,5.07
2017-06-12T11:42:46.182Z,5.37
2017-06-12T11:45:15.018Z,4.60
2017-06-12T11:47:43.818Z,4.87
2017-06-12T11:50:12.665Z,4.77
2017-06-12T11:52:41.651Z,4.73
2017-06-12T11:55:10.447Z,4.60
2017-06-12T11:57:39.429Z,4.90
2017-06-12T12:00:08.227Z,4.73
2017-06-12T12:02:37.147Z,4.23
2017-06-12T12:05:06.190Z,4.73
2017-06-12T12:07:35.011Z,4.90
2017-06-12T12:10:03.821Z,4.33
2017-06-12T12:12:32.711Z,4.53
2017-06-12T12:15:01.684Z,4.20
2017-06-12T12:17:31.505Z,5.50
2017-06-12T12:20:00.401Z,4.53
2017-06-12T12:22:29.283Z,4.23
2017-06-12T12:24:58.223Z,4.90
2017-06-12T12:27:27.227Z,4.60
2017-06-12T12:29:56.047Z,4.70
2017-06-12T12:32:24.922Z,4.60
2017-06-12T12:34:53.880Z,4.33
2017-06-12T12:37:22.777Z,4.30
2017-06-12T12:39:51.635Z,4.00
2017-06-12T12:42:20.430Z,4.70
2017-06-12T12:44:49.354Z,4.47
2017-06-12T12:47:18.223Z,4.30
2017-06-12T12:49:47.055Z,3.87
2017-06-12T12:52:15.866Z,4.27
2017-06-12T12:54:44.671Z,4.20
2017-06-12T12:57:13.558Z,4.10
2017-06-12T12:59:42.351Z,3.50
2017-06-12T13:02:11.171Z,4.00
2017-06-12T13:04:40.076Z,4.00
2017-06-12T13:07:08.892Z,3.77
2017-06-12T13:09:37.735Z,3.87
2017-06-12T13:12:06.536Z,3.47
2017-06-12T13:14:35.373Z,3.70
2017-06-12T13:17:04.231Z,3.40
2017-06-12T13:19:33.075Z,3.23
2017-06-12T13:22:02.164Z,3.60
2017-06-12T13:24:30.967Z,2.70
2017-06-12T13:27:00.439Z,3.10
2017-06-12T13:29:30.784Z,3.23
2017-06-12T13:32:01.233Z,2.80
2017-06-12T13:34:30.954Z,3.30
2017-06-12T13:36:59.779Z,3.03
2017-06-12T13:39:28.575Z,4.00
2017-06-12T13:41:57.478Z,2.77
2017-06-12T13:44:26.299Z,2.30
2017-06-12T13:46:55.149Z,2.53
2017-06-12T13:49:23.958Z,2.80
2017-06-12T13:51:52.795Z,2.43
2017-06-12T13:54:21.661Z,2.47
2017-06-12T13:56:50.476Z,2.03
2017-06-12T13:59:19.280Z,2.10
2017-06-12T14:01:48.102Z,2.10
2017-06-12T14:04:16.911Z,2.10
2017-06-12T14:06:45.904Z,2.00
2017-06-12T14:09:14.791Z,2.30
2017-06-12T14:11:43.622Z,2.00
2017-06-12T14:14:12.414Z,1.90
2017-06-12T14:16:41.226Z,1.90
2017-06-12T14:19:10.139Z,2.20
2017-06-12T14:21:38.963Z,1.70
2017-06-12T14:24:07.783Z,2.10
2017-06-12T14:26:36.615Z,2.10
2017-06-12T14:29:05.432Z,2.07
2017-06-12T14:31:34.279Z,1.80
2017-06-12T14:34:03.090Z,2.00
2017-06-12T14:36:31.891Z,1.73
2017-06-12T14:39:00.742Z,2.17
2017-06-12T14:41:29.572Z,1.87
2017-06-12T14:43:58.374Z,1.77
2017-06-12T14:46:27.231Z,1.80
2017-06-12T14:48:56.032Z,1.80
2017-06-12T14:51:24.916Z,1.70
2017-06-12T14:53:53.754Z,2.00
2017-06-12T14:56:22.546Z,1.90
2017-06-12T14:58:51.427Z,2.00
2017-06-12T15:01:20.227Z,2.10
2017-06-12T15:03:49.134Z,1.60
2017-06-12T15:06:17.960Z,1.83
2017-06-12T15:08:46.768Z,1.73
2017-06-12T15:11:15.643Z,1.53
2017-06-12T15:13:44.461Z,1.77
2017-06-12T15:16:13.282Z,1.70
2017-06-12T15:18:42.108Z,1.40
2017-06-12T15:21:10.949Z,1.50
2017-06-12T15:23:39.750Z,1.63
2017-06-12T15:26:08.577Z,1.60
2017-06-12T15:28:37.528Z,1.87
2017-06-12T15:31:06.334Z,1.40
2017-06-12T15:33:35.165Z,1.80
2017-06-12T15:36:03.979Z,1.77
2017-06-12T15:38:32.782Z,1.37
2017-06-12T15:41:01.904Z,1.47
2017-06-12T15:43:30.715Z,1.40
2017-06-12T15:45:59.559Z,1.50
2017-06-12T15:48:28.399Z,1.20
2017-06-12T15:50:57.268Z,1.00
2017-06-12T15:53:26.075Z,1.57
2017-06-12T15:55:54.943Z,1.77
2017-06-12T15:58:23.740Z,1.40
2017-06-12T16:00:52.561Z,1.50
2017-06-12T16:03:21.404Z,1.20
2017-06-12T16:05:50.253Z,1.30
2017-06-12T16:08:19.058Z,1.20
2017-06-12T16:10:47.909Z,2.40
2017-06-12T16:13:16.787Z,1.23
2017-06-12T16:15:45.666Z,1.20
2017-06-12T16:18:14.482Z,1.40
2017-06-12T16:20:43.420Z,1.50
2017-06-12T16:23:12.252Z,1.30
2017-06-12T16:25:41.060Z,1.27
2017-06-12T16:28:09.890Z,1.10
2017-06-12T16:30:38.738Z,1.70
2017-06-12T16:33:07.560Z,1.43
2017-06-12T16:35:36.655Z,1.30
2017-06-12T16:38:05.479Z,1.40
2017-06-12T16:40:34.323Z,1.13
2017-06-12T16:43:03.143Z,1.60
2017-06-12T16:45:31.952Z,1.30
2017-06-12T16:48:00.801Z,1.50
2017-06-12T16:50:29.636Z,1.50
2017-06-12T16:52:58.550Z,1.37
2017-06-12T16:55:27.372Z,1.07
2017-06-12T16:57:56.186Z,1.23
2017-06-12T17:00:25.065Z,1.40
2017-06-12T17:02:53.893Z,1.27
2017-06-12T17:05:22.728Z,1.80
2017-06-12T17:07:51.571Z,1.63
2017-06-12T17:10:20.418Z,1.30
2017-06-12T17:12:49.239Z,1.70
2017-06-12T17:15:18.087Z,1.50
2017-06-12T17:17:46.939Z,1.50
2017-06-12T17:20:15.872Z,1.53
2017-06-12T17:22:44.718Z,1.40
2017-06-12T17:25:13.530Z,1.30
2017-06-12T17:27:42.391Z,1.60
2017-06-12T17:30:11.201Z,1.20
2017-06-12T17:32:40.149Z,1.63
2017-06-12T17:35:08.963Z,1.67
2017-06-12T17:37:37.758Z,2.53
2017-06-12T17:40:06.602Z,1.73
2017-06-12T17:42:35.397Z,1.80
2017-06-12T17:45:04.236Z,1.93
2017-06-12T17:47:33.079Z,1.53
2017-06-12T17:50:01.887Z,1.60
2017-06-12T17:52:30.704Z,1.40
2017-06-12T17:54:59.522Z,1.50
2017-06-12T17:57:28.363Z,1.40
2017-06-12T17:59:57.255Z,1.53
2017-06-12T18:02:26.097Z,1.43
2017-06-12T18:04:54.900Z,1.60
2017-06-12T18:07:23.891Z,1.50
2017-06-12T18:09:52.695Z,1.33
2017-06-12T18:12:21.510Z,1.30
2017-06-12T18:14:50.351Z,1.70
2017-06-12T18:17:19.199Z,1.70
2017-06-12T18:19:48.116Z,1.47
2017-06-12T18:22:16.966Z,1.60
2017-06-12T18:24:45.773Z,1.37
2017-06-12T18:27:14.616Z,1.40
2017-06-12T18:29:43.457Z,1.30
2017-06-12T18:32:12.330Z,1.37
2017-06-12T18:34:41.187Z,2.60
2017-06-12T18:37:10.001Z,1.40
2017-06-12T18:39:38.878Z,1.30
2017-06-12T18:42:07.770Z,1.27
2017-06-12T18:44:36.612Z,1.40
2017-06-12T18:47:05.441Z,1.43
2017-06-12T18:49:34.306Z,1.07
2017-06-12T18:52:03.950Z,1.33
2017-06-12T18:54:32.780Z,1.40
2017-06-12T18:57:01.571Z,1.47
2017-06-12T18:59:30.425Z,1.70
2017-06-12T19:01:59.251Z,1.50
2017-06-12T19:04:28.167Z,1.50
2017-06-12T19:06:57.005Z,1.50
2017-06-12T19:09:25.816Z,1.57
2017-06-12T19:11:54.708Z,1.40
2017-06-12T19:14:23.676Z,1.63
2017-06-12T19:16:52.479Z,1.23
2017-06-12T19:19:21.327Z,1.60
2017-06-12T19:21:50.143Z,1.40
2017-06-12T19:24:18.958Z,1.80
2017-06-12T19:26:47.997Z,1.53
2017-06-12T19:29:16.789Z,1.40
2017-06-12T19:31:45.604Z,1.70
2017-06-12T19:34:14.503Z,1.57
2017-06-12T19:36:43.327Z,1.30
2017-06-12T19:39:12.183Z,1.80
2017-06-12T19:41:40.991Z,1.70
2017-06-12T19:44:09.809Z,1.53
2017-06-12T19:46:38.683Z,1.50
2017-06-12T19:49:07.496Z,1.87
2017-06-12T19:51:36.299Z,2.10
2017-06-12T19:54:05.129Z,1.70
2017-06-12T19:56:33.942Z,1.57
2017-06-12T19:59:02.779Z,1.87
2017-06-12T20:01:31.596Z,1.60
2017-06-12T20:04:00.409Z,1.60
2017-06-12T20:06:29.257Z,1.80
2017-06-12T20:08:58.174Z,1.70
2017-06-12T20:11:27.024Z,1.27
2017-06-12T20:13:55.834Z,1.47
2017-06-12T20:16:24.644Z,1.47
2017-06-12T20:18:53.491Z,1.40
2017-06-12T20:21:22.291Z,1.60
2017-06-12T20:23:51.113Z,1.40
2017-06-12T20:26:20.707Z,1.50
2017-06-12T20:28:49.553Z,2.00
2017-06-12T20:31:18.419Z,1.53
2017-06-12T20:33:47.271Z,1.30
2017-06-12T20:36:16.085Z,2.80
2017-06-12T20:38:44.927Z,1.70
2017-06-12T20:41:13.799Z,1.47
2017-06-12T20:43:42.646Z,1.30
2017-06-12T20:46:11.498Z,1.30
2017-06-12T20:48:40.326Z,1.30
2017-06-12T20:51:09.131Z,1.40
2017-06-12T20:53:37.982Z,1.60
2017-06-12T20:56:06.791Z,2.20
2017-06-12T20:58:35.618Z,1.40
2017-06-12T21:01:04.461Z,2.33
2017-06-12T21:03:33.260Z,1.77
2017-06-12T21:06:02.114Z,1.57
2017-06-12T21:08:30.926Z,1.43
2017-06-12T21:10:59.732Z,1.77
2017-06-12T21:13:28.586Z,1.97
2017-06-12T21:15:57.384Z,1.57
2017-06-12T21:18:26.289Z,1.60
2017-06-12T21:20:55.191Z,1.33
2017-06-12T21:23:24.019Z,1.47
2017-06-12T21:25:52.851Z,1.47
2017-06-12T21:28:21.708Z,1.47
2017-06-12T21:30:50.598Z,1.20
2017-06-12T21:33:19.415Z,1.50
2017-06-12T21:35:48.236Z,1.53
2017-06-12T21:38:17.059Z,1.30
2017-06-12T21:40:45.915Z,1.73
2017-06-12T21:43:14.733Z,1.80
2017-06-12T21:45:43.559Z,2.10
2017-06-12T21:48:12.417Z,2.03
2017-06-12T21:50:41.226Z,1.90
2017-06-12T21:53:10.098Z,2.20
2017-06-12T21:55:38.936Z,2.30
2017-06-12T21:58:07.751Z,2.07
2017-06-12T22:00:36.795Z,2.70
2017-06-12T22:03:05.618Z,2.67
2017-06-12T22:05:34.439Z,2.60
2017-06-12T22:08:03.334Z,2.57
2017-06-12T22:10:32.178Z,3.80
2017-06-12T22:13:01.009Z,3.00
2017-06-12T22:15:29.855Z,2.07
2017-06-12T22:17:58.669Z,2.10
2017-06-12T22:20:27.526Z,1.97
2017-06-12T22:22:56.329Z,1.80
2017-06-12T22:25:25.230Z,2.10
2017-06-12T22:27:54.311Z,1.50
2017-06-12T22:30:23.311Z,1.97
2017-06-12T22:32:52.558Z,2.20
2017-06-12T22:35:21.387Z,2.60
2017-06-12T22:37:50.202Z,2.20
2017-06-12T22:40:19.014Z,2.07
2017-06-12T22:42:47.863Z,2.03
2017-06-12T22:45:16.687Z,1.80
2017-06-12T22:47:45.492Z,2.63
2017-06-12T22:50:14.374Z,2.80
2017-06-12T22:52:43.199Z,2.53
2017-06-12T22:55:12.053Z,2.63
2017-06-12T22:57:40.839Z,2.70
2017-06-12T23:00:09.838Z,2.37
2017-06-12T23:02:38.738Z,2.33
2017-06-12T23:05:07.582Z,2.60
2017-06-12T23:07:36.499Z,2.43
2017-06-12T23:10:05.331Z,2.70
2017-06-12T23:12:34.138Z,2.10
2017-06-12T23:15:02.944Z,2.27
2017-06-12T23:17:31.805Z,2.80
2017-06-12T23:20:00.703Z,2.30
2017-06-12T23:22:29.575Z,2.67
2017-06-12T23:24:58.411Z,2.13
2017-06-12T23:27:33.036Z,2.30
2017-06-12T23:30:01.855Z,2.27
2017-06-12T23:32:30.715Z,2.07
2017-06-12T23:35:00.117Z,1.80
2017-06-12T23:37:28.932Z,2.50
2017-06-12T23:39:57.745Z,2.13
2017-06-12T23:42:26.613Z,1.73
2017-06-12T23:44:55.443Z,2.30
2017-06-12T23:47:24.260Z,1.93
2017-06-12T23:49:53.100Z,1.93
2017-06-12T23:52:21.896Z,2.03
2017-06-12T23:54:50.798Z,2.13
2017-06-12T23:57:19.672Z,2.17
2017-06-12T23:59:48.514Z,2.00
